createdAt,value
2018-06-10T04:10:02.423Z,18.86
2018-06-10T04:10:27.937Z,18.83
2018-06-10T04:10:53.409Z,18.84
2018-06-10T04:11:18.879Z,18.88
2018-06-10T04:11:44.364Z,18.78
2018-06-10T04:12:09.872Z,18.83
2018-06-10T04:12:35.376Z,18.83
2018-06-10T04:13:00.938Z,18.8
2018-06-10T04:13:26.447Z,18.83
2018-06-10T04:13:51.969Z,18.81
2018-06-10T04:14:17.464Z,18.73
2018-06-10T04:14:42.951Z,18.75
2018-06-10T04:15:08.452Z,18.88
2018-06-10T04:15:33.963Z,18.8
2018-06-10T04:15:59.466Z,18.7
2018-06-10T04:16:24.947Z,18.73
2018-06-10T04:16:50.431Z,18.84
2018-06-10T04:17:15.922Z,18.73
2018-06-10T04:17:41.444Z,18.88
2018-06-10T04:18:06.946Z,18.83
2018-06-10T04:18:32.450Z,18.84
2018-06-10T04:18:57.956Z,18.75
2018-06-10T04:19:23.441Z,18.78
2018-06-10T04:19:48.943Z,18.83
2018-06-10T04:20:14.451Z,18.7
2018-06-10T04:20:39.941Z,18.73
2018-06-10T04:21:05.446Z,18.78
2018-06-10T04:21:30.953Z,18.86
2018-06-10T04:22:30.475Z,18.7
2018-06-10T04:22:55.979Z,18.8
2018-06-10T04:23:21.480Z,18.81
2018-06-10T04:23:46.974Z,18.84
2018-06-10T04:24:12.455Z,18.86
2018-06-10T04:24:37.940Z,18.81
2018-06-10T04:25:03.430Z,18.81
2018-06-10T04:25:28.948Z,18.71
2018-06-10T04:25:54.436Z,18.86
2018-06-10T04:26:19.935Z,18.88
2018-06-10T04:26:45.450Z,18.8
2018-06-10T04:27:10.942Z,18.84
2018-06-10T04:27:36.458Z,18.84
2018-06-10T04:28:01.959Z,18.86
2018-06-10T04:28:27.441Z,18.81
2018-06-10T04:29:15.773Z,18.81
2018-06-10T04:29:41.276Z,18.84
2018-06-10T04:30:06.782Z,18.88
2018-06-10T04:30:32.282Z,18.81
2018-06-10T04:30:57.770Z,18.84
2018-06-10T04:31:23.322Z,18.78
2018-06-10T04:31:48.782Z,18.84
2018-06-10T04:32:14.249Z,18.84
2018-06-10T04:32:39.744Z,18.83
2018-06-10T04:33:05.254Z,18.83
2018-06-10T04:33:30.748Z,18.75
2018-06-10T04:33:56.249Z,18.88
2018-06-10T04:34:21.737Z,18.86
2018-06-10T04:34:47.195Z,18.9
2018-06-10T04:35:12.701Z,18.89
2018-06-10T04:35:38.199Z,18.77
2018-06-10T04:36:03.718Z,18.83
2018-06-10T04:36:29.203Z,18.86
2018-06-10T04:36:54.692Z,18.84
2018-06-10T04:37:20.211Z,18.77
2018-06-10T04:37:45.725Z,18.75
2018-06-10T04:38:11.268Z,18.78
2018-06-10T04:38:36.761Z,18.84
2018-06-10T04:39:02.261Z,18.73
2018-06-10T04:39:27.773Z,18.86
2018-06-10T04:39:53.281Z,18.75
2018-06-10T04:40:18.781Z,18.78
2018-06-10T04:40:44.260Z,18.84
2018-06-10T04:41:09.719Z,18.73
2018-06-10T04:41:35.201Z,18.73
2018-06-10T04:42:00.697Z,18.75
2018-06-10T04:42:26.194Z,18.86
2018-06-10T04:42:51.701Z,18.7
2018-06-10T04:43:17.209Z,18.75
2018-06-10T04:43:42.721Z,18.78
2018-06-10T04:44:08.229Z,18.83
2018-06-10T04:44:33.736Z,18.7
2018-06-10T04:44:59.219Z,18.77
2018-06-10T04:45:24.718Z,18.89
2018-06-10T04:45:50.196Z,18.8
2018-06-10T04:46:15.705Z,18.84
2018-06-10T04:46:41.222Z,18.81
2018-06-10T04:47:06.821Z,18.86
2018-06-10T04:47:32.262Z,18.81
2018-06-10T04:47:57.780Z,18.74
2018-06-10T04:48:23.247Z,18.71
2018-06-10T04:48:48.738Z,18.74
2018-06-10T04:49:14.251Z,18.84
2018-06-10T04:49:39.739Z,18.78
2018-06-10T04:50:05.224Z,18.83
2018-06-10T04:50:30.714Z,18.78
2018-06-10T04:50:56.185Z,18.7
2018-06-10T04:51:21.695Z,18.81
2018-06-10T04:51:47.197Z,18.77
2018-06-10T04:52:12.682Z,18.71
2018-06-10T04:52:38.191Z,18.78
2018-06-10T04:53:03.747Z,18.81
2018-06-10T04:53:29.182Z,18.75
2018-06-10T04:53:54.737Z,18.71
2018-06-10T04:54:20.234Z,18.74
2018-06-10T04:54:45.751Z,18.71
2018-06-10T04:55:11.237Z,18.73
2018-06-10T04:56:04.690Z,18.74
2018-06-10T04:56:30.184Z,18.71
2018-06-10T04:56:55.679Z,18.71
2018-06-10T04:57:21.162Z,18.71
2018-06-10T04:57:46.636Z,18.73
2018-06-10T04:58:12.144Z,18.8
2018-06-10T04:58:37.663Z,18.75
2018-06-10T04:59:03.158Z,18.74
2018-06-10T04:59:28.661Z,18.89
2018-06-10T04:59:54.167Z,18.83
2018-06-10T05:00:19.659Z,18.83
2018-06-10T05:00:45.157Z,18.83
2018-06-10T05:01:10.620Z,18.83
2018-06-10T05:01:36.129Z,18.84
2018-06-10T05:02:01.625Z,18.81
2018-06-10T05:02:27.102Z,18.71
2018-06-10T05:02:52.632Z,18.81
2018-06-10T05:03:18.123Z,18.84
2018-06-10T05:03:43.618Z,18.77
2018-06-10T05:04:09.101Z,18.81
2018-06-10T05:04:57.428Z,18.81
2018-06-10T05:05:22.926Z,18.81
2018-06-10T05:05:48.430Z,18.88
2018-06-10T05:06:13.969Z,18.86
2018-06-10T05:06:39.390Z,18.88
2018-06-10T05:07:04.887Z,18.84
2018-06-10T05:07:30.377Z,18.88
2018-06-10T05:07:55.865Z,18.88
2018-06-10T05:08:21.320Z,18.81
2018-06-10T05:09:29.973Z,18.88
2018-06-10T05:09:55.476Z,18.81
2018-06-10T05:10:20.976Z,18.83
2018-06-10T05:10:46.467Z,18.81
2018-06-10T05:11:11.956Z,18.77
2018-06-10T05:11:37.430Z,18.84
2018-06-10T05:12:02.928Z,18.86
2018-06-10T05:12:28.419Z,18.84
2018-06-10T05:12:53.920Z,18.83
2018-06-10T05:13:19.419Z,18.86
2018-06-10T05:13:44.945Z,18.74
2018-06-10T05:14:10.428Z,18.83
2018-06-10T05:14:35.937Z,18.81
2018-06-10T05:15:01.454Z,18.74
2018-06-10T05:15:26.991Z,18.86
2018-06-10T05:15:52.471Z,18.81
2018-06-10T05:16:17.983Z,18.86
2018-06-10T05:16:43.478Z,18.84
2018-06-10T05:17:08.977Z,18.84
2018-06-10T05:17:34.463Z,18.84
2018-06-10T05:17:59.972Z,18.86
2018-06-10T05:18:25.495Z,18.84
2018-06-10T05:18:51.019Z,18.84
2018-06-10T05:19:16.503Z,18.81
2018-06-10T05:19:42.021Z,18.81
2018-06-10T05:20:07.514Z,18.86
2018-06-10T05:20:33.007Z,18.89
2018-06-10T05:20:58.519Z,18.9
2018-06-10T05:21:24.008Z,18.84
2018-06-10T05:21:49.504Z,18.88
2018-06-10T05:22:53.086Z,18.88
2018-06-10T05:23:18.572Z,18.8
2018-06-10T05:23:44.082Z,18.81
2018-06-10T05:24:09.588Z,18.77
2018-06-10T05:24:35.094Z,18.77
2018-06-10T05:25:00.586Z,18.75
2018-06-10T05:25:26.054Z,18.75
2018-06-10T05:25:51.541Z,18.77
2018-06-10T05:26:55.124Z,18.75
2018-06-10T05:27:20.637Z,18.74
2018-06-10T05:27:46.126Z,18.77
2018-06-10T05:28:11.622Z,18.74
2018-06-10T05:28:37.084Z,18.73
2018-06-10T05:29:02.582Z,18.74
2018-06-10T05:29:28.056Z,18.78
2018-06-10T05:29:53.542Z,18.7
2018-06-10T05:30:19.060Z,18.74
2018-06-10T05:30:44.586Z,18.63
2018-06-10T05:31:10.101Z,18.68
2018-06-10T05:31:35.596Z,18.71
2018-06-10T05:32:01.108Z,18.66
2018-06-10T05:32:26.589Z,18.78
2018-06-10T05:32:52.113Z,18.74
2018-06-10T05:33:17.589Z,18.74
2018-06-10T05:33:43.096Z,18.71
2018-06-10T05:34:08.567Z,18.8
2018-06-10T05:34:34.067Z,18.73
2018-06-10T05:34:59.574Z,18.71
2018-06-10T05:35:25.069Z,18.74
2018-06-10T05:35:50.546Z,18.73
2018-06-10T05:36:16.015Z,18.75
2018-06-10T05:36:41.540Z,18.78
2018-06-10T05:37:40.070Z,18.75
2018-06-10T05:38:05.568Z,18.71
2018-06-10T05:38:31.061Z,18.74
2018-06-10T05:38:56.553Z,18.73
2018-06-10T05:39:22.018Z,18.77
2018-06-10T05:39:47.529Z,18.75
2018-06-10T05:40:13.036Z,18.7
2018-06-10T05:40:38.524Z,18.7
2018-06-10T05:41:04.008Z,18.71
2018-06-10T05:41:29.511Z,18.75
2018-06-10T05:41:55.021Z,18.78
2018-06-10T05:42:20.494Z,18.81
2018-06-10T05:42:46.013Z,18.89
2018-06-10T05:43:11.498Z,18.86
2018-06-10T05:43:36.991Z,18.88
2018-06-10T05:44:02.495Z,18.84
2018-06-10T05:44:27.984Z,18.81
2018-06-10T05:44:53.490Z,18.84
2018-06-10T05:45:18.989Z,18.83
2018-06-10T05:45:44.477Z,18.89
2018-06-10T05:46:09.970Z,18.89
2018-06-10T05:46:35.445Z,18.89
2018-06-10T05:47:00.932Z,18.92
2018-06-10T05:47:26.430Z,18.93
2018-06-10T05:47:51.898Z,18.88
2018-06-10T05:48:17.414Z,19.07
2018-06-10T05:48:42.940Z,19.04
2018-06-10T05:49:08.433Z,19.08
2018-06-10T05:49:33.900Z,19.07
2018-06-10T05:49:59.390Z,18.99
2018-06-10T05:50:24.863Z,18.99
2018-06-10T05:50:50.360Z,19.08
2018-06-10T05:51:15.896Z,18.99
2018-06-10T05:51:41.352Z,19.02
2018-06-10T05:52:06.851Z,19.04
2018-06-10T05:52:32.348Z,19
2018-06-10T05:52:57.839Z,19.08
2018-06-10T05:53:23.350Z,19.15
2018-06-10T05:53:48.870Z,19.14
2018-06-10T05:54:14.372Z,19.11
2018-06-10T05:54:39.859Z,19.14
2018-06-10T05:55:05.369Z,19.16
2018-06-10T05:55:30.891Z,19.18
2018-06-10T05:55:56.369Z,19.19
2018-06-10T05:56:21.856Z,19.16
2018-06-10T05:56:47.333Z,19.16
2018-06-10T05:57:12.854Z,19.16
2018-06-10T05:57:38.392Z,19.11
2018-06-10T05:58:03.904Z,19.15
2018-06-10T05:58:29.398Z,19.18
2018-06-10T05:58:54.919Z,19.22
2018-06-10T05:59:20.411Z,19.24
2018-06-10T05:59:45.909Z,19.16
2018-06-10T06:00:11.421Z,19.16
2018-06-10T06:00:36.946Z,19.15
2018-06-10T06:01:02.416Z,19.16
2018-06-10T06:01:27.998Z,19.15
2018-06-10T06:01:53.422Z,19.16
2018-06-10T06:02:18.910Z,19.12
2018-06-10T06:02:44.393Z,19.14
2018-06-10T06:03:09.906Z,19.18
2018-06-10T06:03:35.390Z,19.15
2018-06-10T06:04:00.873Z,19.16
2018-06-10T06:04:26.396Z,19.3
2018-06-10T06:04:51.885Z,19.26
2018-06-10T06:05:17.379Z,19.18
2018-06-10T06:05:42.846Z,19.27
2018-06-10T06:06:08.348Z,19.26
2018-06-10T06:06:33.822Z,19.26
2018-06-10T06:06:59.300Z,19.29
2018-06-10T06:07:24.765Z,19.31
2018-06-10T06:07:50.265Z,19.29
2018-06-10T06:08:15.737Z,19.27
2018-06-10T06:08:41.201Z,19.3
2018-06-10T06:09:06.684Z,19.29
2018-06-10T06:09:32.192Z,19.27
2018-06-10T06:09:57.688Z,19.29
2018-06-10T06:10:23.161Z,19.3
2018-06-10T06:10:48.656Z,19.27
2018-06-10T06:11:14.156Z,19.3
2018-06-10T06:11:39.660Z,19.37
2018-06-10T06:12:05.166Z,19.34
2018-06-10T06:12:30.657Z,19.33
2018-06-10T06:13:39.357Z,19.33
2018-06-10T06:14:04.856Z,19.29
2018-06-10T06:14:30.367Z,19.37
2018-06-10T06:14:55.862Z,19.4
2018-06-10T06:15:21.377Z,19.34
2018-06-10T06:15:46.883Z,19.4
2018-06-10T06:16:12.351Z,19.37
2018-06-10T06:16:37.845Z,19.33
2018-06-10T06:17:03.352Z,19.4
2018-06-10T06:17:28.861Z,19.34
2018-06-10T06:17:54.359Z,19.31
2018-06-10T06:18:19.842Z,19.36
2018-06-10T06:18:45.377Z,19.39
2018-06-10T06:19:10.868Z,19.37
2018-06-10T06:19:36.348Z,19.36
2018-06-10T06:20:01.848Z,19.4
2018-06-10T06:20:27.320Z,19.41
2018-06-10T06:20:52.808Z,19.4
2018-06-10T06:21:18.278Z,19.4
2018-06-10T06:21:43.823Z,19.37
2018-06-10T06:22:09.305Z,19.34
2018-06-10T06:22:34.802Z,19.39
2018-06-10T06:23:00.280Z,19.37
2018-06-10T06:23:25.787Z,19.29
2018-06-10T06:23:51.283Z,19.36
2018-06-10T06:24:16.782Z,19.39
2018-06-10T06:24:42.310Z,19.37
2018-06-10T06:25:07.790Z,19.37
2018-06-10T06:25:33.291Z,19.39
2018-06-10T06:25:58.877Z,19.45
2018-06-10T06:26:24.354Z,19.49
2018-06-10T06:26:49.922Z,19.37
2018-06-10T06:27:15.787Z,19.36
2018-06-10T06:27:41.379Z,19.39
2018-06-10T06:28:45.081Z,19.44
2018-06-10T06:29:11.411Z,19.41
2018-06-10T06:29:36.926Z,19.4
2018-06-10T06:30:02.437Z,19.37
2018-06-10T06:30:27.947Z,19.39
2018-06-10T06:30:53.461Z,19.4
2018-06-10T06:31:18.999Z,19.39
2018-06-10T06:31:44.511Z,19.4
2018-06-10T06:32:10.019Z,19.44
2018-06-10T06:32:35.549Z,19.39
2018-06-10T06:33:28.971Z,19.39
2018-06-10T06:33:54.521Z,19.4
2018-06-10T06:34:20.092Z,19.39
2018-06-10T06:34:45.508Z,19.39
2018-06-10T06:35:11.086Z,19.39
2018-06-10T06:35:36.618Z,19.33
2018-06-10T06:36:02.118Z,19.37
2018-06-10T06:36:27.633Z,19.37
2018-06-10T06:36:53.114Z,19.4
2018-06-10T06:37:18.602Z,19.39
2018-06-10T06:37:44.081Z,19.44
2018-06-10T06:38:09.601Z,19.41
2018-06-10T06:38:35.084Z,19.3
2018-06-10T06:39:00.591Z,19.37
2018-06-10T06:39:26.130Z,19.4
2018-06-10T06:39:51.627Z,19.41
2018-06-10T06:40:17.147Z,19.37
2018-06-10T06:40:42.666Z,19.41
2018-06-10T06:41:08.149Z,19.45
2018-06-10T06:41:33.645Z,19.36
2018-06-10T06:41:59.126Z,19.41
2018-06-10T06:42:24.648Z,19.31
2018-06-10T06:42:50.140Z,19.36
2018-06-10T06:43:15.651Z,19.36
2018-06-10T06:43:41.147Z,19.36
2018-06-10T06:44:06.667Z,19.3
2018-06-10T06:44:32.164Z,19.36
2018-06-10T06:44:57.650Z,19.4
2018-06-10T06:45:23.147Z,19.3
2018-06-10T06:45:48.653Z,19.36
2018-06-10T06:46:14.119Z,19.33
2018-06-10T06:46:39.652Z,19.37
2018-06-10T06:47:05.211Z,19.48
2018-06-10T06:47:30.647Z,19.39
2018-06-10T06:47:56.152Z,19.41
2018-06-10T06:48:21.651Z,19.36
2018-06-10T06:48:47.135Z,19.34
2018-06-10T06:49:12.605Z,19.39
2018-06-10T06:49:38.132Z,19.45
2018-06-10T06:50:03.599Z,19.36
2018-06-10T06:50:29.098Z,19.36
2018-06-10T06:50:54.596Z,19.33
2018-06-10T06:51:20.073Z,19.39
2018-06-10T06:51:45.565Z,19.41
2018-06-10T06:52:11.047Z,19.39
2018-06-10T06:52:36.609Z,19.45
2018-06-10T06:53:02.104Z,19.48
2018-06-10T06:53:27.595Z,19.47
2018-06-10T06:53:53.107Z,19.47
2018-06-10T06:54:18.614Z,19.52
2018-06-10T06:54:44.120Z,19.4
2018-06-10T06:55:09.591Z,19.45
2018-06-10T06:55:35.124Z,19.49
2018-06-10T06:56:00.629Z,19.44
2018-06-10T06:56:26.132Z,19.55
2018-06-10T06:56:51.623Z,19.49
2018-06-10T06:57:17.126Z,19.49
2018-06-10T06:57:42.595Z,19.59
2018-06-10T06:58:08.133Z,19.56
2018-06-10T06:58:33.635Z,19.58
2018-06-10T06:58:59.119Z,19.52
2018-06-10T06:59:24.716Z,19.55
2018-06-10T06:59:50.221Z,19.59
2018-06-10T07:00:15.991Z,19.7
2018-06-10T07:00:41.327Z,19.66
2018-06-10T07:01:06.876Z,19.71
2018-06-10T07:01:32.311Z,19.63
2018-06-10T07:01:57.779Z,19.59
2018-06-10T07:02:23.289Z,19.7
2018-06-10T07:02:48.785Z,19.64
2018-06-10T07:03:14.319Z,19.63
2018-06-10T07:03:39.773Z,19.67
2018-06-10T07:04:05.315Z,19.67
2018-06-10T07:04:30.742Z,19.77
2018-06-10T07:04:56.239Z,19.67
2018-06-10T07:05:21.687Z,19.85
2018-06-10T07:05:47.212Z,19.85
2018-06-10T07:06:12.675Z,19.79
2018-06-10T07:06:38.123Z,19.88
2018-06-10T07:07:03.624Z,19.82
2018-06-10T07:07:29.070Z,19.89
2018-06-10T07:07:54.564Z,19.91
2018-06-10T07:08:20.067Z,19.89
2018-06-10T07:08:45.527Z,19.89
2018-06-10T07:09:11.010Z,19.91
2018-06-10T07:09:36.785Z,19.95
2018-06-10T07:10:02.291Z,19.92
2018-06-10T07:10:27.774Z,20
2018-06-10T07:10:53.252Z,19.95
2018-06-10T07:11:18.753Z,20
2018-06-10T07:11:44.258Z,20.04
2018-06-10T07:12:09.804Z,20.07
2018-06-10T07:12:35.364Z,20.07
2018-06-10T07:13:00.815Z,20.1
2018-06-10T07:13:26.298Z,20.13
2018-06-10T07:13:51.796Z,20.14
2018-06-10T07:14:17.323Z,20.11
2018-06-10T07:14:42.788Z,20.14
2018-06-10T07:15:08.336Z,20.18
2018-06-10T07:15:33.846Z,20.18
2018-06-10T07:15:59.311Z,20.22
2018-06-10T07:16:24.827Z,20.22
2018-06-10T07:16:50.338Z,20.26
2018-06-10T07:17:15.815Z,20.26
2018-06-10T07:17:41.319Z,20.28
2018-06-10T07:18:06.810Z,20.29
2018-06-10T07:18:32.292Z,20.26
2018-06-10T07:18:57.788Z,20.29
2018-06-10T07:19:23.311Z,20.29
2018-06-10T07:19:48.815Z,20.4
2018-06-10T07:20:14.338Z,20.37
2018-06-10T07:20:39.862Z,20.4
2018-06-10T07:21:05.378Z,20.36
2018-06-10T07:21:30.872Z,20.39
2018-06-10T07:21:56.370Z,20.43
2018-06-10T07:22:21.869Z,20.48
2018-06-10T07:23:10.190Z,20.39
2018-06-10T07:23:35.711Z,20.51
2018-06-10T07:24:01.190Z,20.48
2018-06-10T07:24:26.685Z,20.55
2018-06-10T07:24:52.192Z,20.55
2018-06-10T07:25:17.695Z,20.55
2018-06-10T07:25:43.191Z,20.55
2018-06-10T07:26:08.688Z,20.51
2018-06-10T07:26:34.182Z,20.52
2018-06-10T07:26:59.677Z,20.58
2018-06-10T07:27:25.141Z,20.66
2018-06-10T07:27:50.641Z,20.58
2018-06-10T07:28:16.134Z,20.6
2018-06-10T07:28:41.666Z,20.6
2018-06-10T07:29:07.137Z,20.58
2018-06-10T07:29:32.635Z,20.67
2018-06-10T07:29:58.140Z,20.69
2018-06-10T07:30:23.727Z,20.75
2018-06-10T07:30:49.239Z,20.66
2018-06-10T07:31:14.729Z,20.69
2018-06-10T07:31:40.220Z,20.7
2018-06-10T07:32:05.706Z,20.72
2018-06-10T07:32:31.246Z,20.69
2018-06-10T07:32:56.744Z,20.67
2018-06-10T07:33:22.205Z,20.72
2018-06-10T07:33:47.679Z,20.8
2018-06-10T07:34:13.206Z,20.82
2018-06-10T07:34:38.715Z,20.88
2018-06-10T07:35:04.210Z,20.82
2018-06-10T07:35:29.733Z,20.82
2018-06-10T07:35:55.229Z,20.97
2018-06-10T07:36:20.733Z,20.84
2018-06-10T07:36:46.237Z,20.9
2018-06-10T07:37:11.805Z,20.96
2018-06-10T07:37:37.271Z,20.97
2018-06-10T07:38:02.773Z,20.95
2018-06-10T07:38:28.293Z,20.97
2018-06-10T07:38:53.785Z,20.97
2018-06-10T07:39:19.295Z,20.95
2018-06-10T07:39:44.839Z,20.99
2018-06-10T07:40:10.377Z,20.95
2018-06-10T07:40:35.950Z,20.92
2018-06-10T07:41:01.373Z,20.96
2018-06-10T07:41:26.875Z,20.93
2018-06-10T07:41:52.357Z,20.97
2018-06-10T07:42:17.904Z,20.95
2018-06-10T07:42:43.387Z,20.85
2018-06-10T07:43:08.891Z,20.95
2018-06-10T07:43:34.409Z,20.93
2018-06-10T07:43:59.918Z,21.02
2018-06-10T07:44:25.367Z,20.9
2018-06-10T07:44:50.848Z,20.92
2018-06-10T07:45:16.328Z,20.95
2018-06-10T07:45:41.776Z,20.92
2018-06-10T07:46:07.290Z,20.93
2018-06-10T07:46:32.794Z,20.95
2018-06-10T07:46:58.270Z,21
2018-06-10T07:47:23.786Z,20.92
2018-06-10T07:47:49.303Z,21.02
2018-06-10T07:48:14.802Z,21
2018-06-10T07:48:40.454Z,21
2018-06-10T07:49:05.880Z,21
2018-06-10T07:49:31.387Z,20.96
2018-06-10T07:49:56.874Z,20.95
2018-06-10T07:50:22.362Z,20.93
2018-06-10T07:50:47.878Z,20.95
2018-06-10T07:51:13.414Z,20.88
2018-06-10T07:51:38.903Z,20.93
2018-06-10T07:52:04.490Z,20.97
2018-06-10T07:52:29.925Z,20.96
2018-06-10T07:52:55.401Z,20.99
2018-06-10T07:53:20.901Z,21.06
2018-06-10T07:53:46.404Z,21.07
2018-06-10T07:54:11.879Z,21.09
2018-06-10T07:54:37.433Z,21.07
2018-06-10T07:55:02.824Z,21.09
2018-06-10T07:55:28.302Z,21.25
2018-06-10T07:55:53.756Z,21.21
2018-06-10T07:56:19.278Z,21.24
2018-06-10T07:56:44.819Z,21.27
2018-06-10T07:57:10.263Z,21.3
2018-06-10T07:57:58.570Z,21.24
2018-06-10T07:58:24.097Z,21.36
2018-06-10T07:58:49.603Z,21.22
2018-06-10T07:59:15.092Z,21.46
2018-06-10T07:59:40.591Z,21.36
2018-06-10T08:00:06.158Z,21.45
2018-06-10T08:00:31.646Z,21.42
2018-06-10T08:00:57.177Z,21.46
2018-06-10T08:01:22.674Z,21.46
2018-06-10T08:01:48.211Z,21.51
2018-06-10T08:02:13.711Z,21.52
2018-06-10T08:02:39.227Z,21.6
2018-06-10T08:03:04.705Z,21.6
2018-06-10T08:03:30.221Z,21.66
2018-06-10T08:03:55.717Z,21.62
2018-06-10T08:04:21.238Z,21.67
2018-06-10T08:04:46.770Z,21.66
2018-06-10T08:05:12.291Z,21.67
2018-06-10T08:05:37.779Z,21.73
2018-06-10T08:06:03.266Z,21.8
2018-06-10T08:06:28.773Z,21.82
2018-06-10T08:06:54.259Z,21.82
2018-06-10T08:07:19.763Z,21.8
2018-06-10T08:07:45.254Z,21.79
2018-06-10T08:08:10.774Z,21.88
2018-06-10T08:08:36.288Z,21.83
2018-06-10T08:09:01.794Z,21.93
2018-06-10T08:09:27.286Z,21.83
2018-06-10T08:09:52.798Z,21.93
2018-06-10T08:10:18.307Z,21.98
2018-06-10T08:10:43.793Z,22.02
2018-06-10T08:11:09.276Z,22
2018-06-10T08:11:34.847Z,22
2018-06-10T08:12:00.364Z,22.08
2018-06-10T08:12:25.949Z,22.1
2018-06-10T08:12:51.451Z,21.98
2018-06-10T08:13:16.940Z,22
2018-06-10T08:13:42.483Z,22.07
2018-06-10T08:14:07.975Z,22.08
2018-06-10T08:14:33.433Z,22.06
2018-06-10T08:14:59.010Z,22.07
2018-06-10T08:15:24.532Z,22.02
2018-06-10T08:15:50.070Z,22.18
2018-06-10T08:16:15.618Z,22.1
2018-06-10T08:16:41.112Z,22.17
2018-06-10T08:17:06.647Z,22.29
2018-06-10T08:17:32.161Z,22.29
2018-06-10T08:17:57.654Z,22.33
2018-06-10T08:18:23.148Z,22.28
2018-06-10T08:18:48.836Z,22.39
2018-06-10T08:19:14.231Z,22.41
2018-06-10T08:19:39.746Z,22.33
2018-06-10T08:20:05.252Z,22.3
2018-06-10T08:20:30.771Z,22.36
2018-06-10T08:20:56.253Z,22.35
2018-06-10T08:21:21.756Z,22.35
2018-06-10T08:21:47.285Z,22.38
2018-06-10T08:22:12.765Z,22.45
2018-06-10T08:22:38.301Z,22.47
2018-06-10T08:23:03.787Z,22.47
2018-06-10T08:23:29.295Z,22.44
2018-06-10T08:23:54.781Z,22.44
2018-06-10T08:24:20.298Z,22.43
2018-06-10T08:24:45.801Z,22.51
2018-06-10T08:25:11.319Z,22.41
2018-06-10T08:25:36.838Z,22.41
2018-06-10T08:26:02.351Z,22.44
2018-06-10T08:26:27.915Z,22.44
2018-06-10T08:26:53.359Z,22.38
2018-06-10T08:27:18.847Z,22.45
2018-06-10T08:27:44.332Z,22.41
2018-06-10T08:28:09.839Z,22.45
2018-06-10T08:28:35.345Z,22.36
2018-06-10T08:29:00.840Z,22.43
2018-06-10T08:29:26.347Z,22.43
2018-06-10T08:29:51.815Z,22.47
2018-06-10T08:30:17.331Z,22.44
2018-06-10T08:30:42.835Z,22.45
2018-06-10T08:31:08.324Z,22.41
2018-06-10T08:31:33.806Z,22.45
2018-06-10T08:31:59.354Z,22.43
2018-06-10T08:32:24.836Z,22.43
2018-06-10T08:32:50.371Z,22.45
2018-06-10T08:33:15.883Z,22.44
2018-06-10T08:33:41.390Z,22.48
2018-06-10T08:34:06.902Z,22.41
2018-06-10T08:34:32.372Z,22.43
2018-06-10T08:34:57.888Z,22.38
2018-06-10T08:35:23.405Z,22.44
2018-06-10T08:35:48.909Z,22.44
2018-06-10T08:36:57.668Z,22.39
2018-06-10T08:37:23.215Z,22.41
2018-06-10T08:37:48.725Z,22.39
2018-06-10T08:38:14.206Z,22.48
2018-06-10T08:38:39.712Z,22.47
2018-06-10T08:39:05.272Z,22.41
2018-06-10T08:39:30.742Z,22.44
2018-06-10T08:39:56.248Z,22.44
2018-06-10T08:40:21.782Z,22.41
2018-06-10T08:40:47.311Z,22.45
2018-06-10T08:41:12.775Z,22.38
2018-06-10T08:41:38.276Z,22.44
2018-06-10T08:42:03.757Z,22.45
2018-06-10T08:42:29.256Z,22.44
2018-06-10T08:42:54.749Z,22.45
2018-06-10T08:43:20.263Z,22.36
2018-06-10T08:43:45.795Z,22.43
2018-06-10T08:44:11.292Z,22.43
2018-06-10T08:44:36.730Z,22.43
2018-06-10T08:45:02.253Z,22.48
2018-06-10T08:45:27.765Z,22.36
2018-06-10T08:45:53.263Z,22.45
2018-06-10T08:46:18.796Z,22.43
2018-06-10T08:46:44.303Z,22.45
2018-06-10T08:47:09.798Z,22.38
2018-06-10T08:47:35.304Z,22.41
2018-06-10T08:48:00.778Z,22.45
2018-06-10T08:48:26.277Z,22.44
2018-06-10T08:48:51.763Z,22.36
2018-06-10T08:49:17.262Z,22.35
2018-06-10T08:49:42.747Z,22.39
2018-06-10T08:50:08.307Z,22.39
2018-06-10T08:50:33.838Z,22.36
2018-06-10T08:50:59.281Z,22.38
2018-06-10T08:51:24.757Z,22.25
2018-06-10T08:51:50.279Z,22.39
2018-06-10T08:52:15.754Z,22.38
2018-06-10T08:52:41.248Z,22.29
2018-06-10T08:53:06.768Z,22.23
2018-06-10T08:54:00.240Z,22.28
2018-06-10T08:54:25.750Z,22.29
2018-06-10T08:54:51.228Z,22.32
2018-06-10T08:55:16.732Z,22.17
2018-06-10T08:55:42.236Z,22.23
2018-06-10T08:56:07.753Z,22.26
2018-06-10T08:56:33.229Z,22.28
2018-06-10T08:56:58.755Z,22.23
2018-06-10T08:57:24.226Z,22.23
2018-06-10T08:57:49.708Z,22.18
2018-06-10T08:58:15.197Z,22.23
2018-06-10T08:58:40.683Z,22.22
2018-06-10T08:59:06.183Z,22.18
2018-06-10T08:59:31.713Z,22.08
2018-06-10T08:59:57.245Z,22.22
2018-06-10T09:00:22.757Z,22.07
2018-06-10T09:00:48.239Z,22.17
2018-06-10T09:01:13.718Z,22.11
2018-06-10T09:01:39.205Z,22.18
2018-06-10T09:02:04.733Z,22.18
2018-06-10T09:02:30.218Z,22.23
2018-06-10T09:02:55.742Z,22.25
2018-06-10T09:03:21.237Z,22.23
2018-06-10T09:03:46.727Z,22.3
2018-06-10T09:04:12.237Z,22.29
2018-06-10T09:04:37.771Z,22.35
2018-06-10T09:05:03.259Z,22.33
2018-06-10T09:05:28.759Z,22.36
2018-06-10T09:05:54.251Z,22.32
2018-06-10T09:06:19.730Z,22.36
2018-06-10T09:07:13.191Z,22.43
2018-06-10T09:07:38.698Z,22.39
2018-06-10T09:08:04.202Z,22.35
2018-06-10T09:08:29.714Z,22.47
2018-06-10T09:08:55.319Z,22.44
2018-06-10T09:09:20.734Z,22.43
2018-06-10T09:09:46.240Z,22.5
2018-06-10T09:10:11.783Z,22.54
2018-06-10T09:10:37.281Z,22.53
2018-06-10T09:11:02.790Z,22.54
2018-06-10T09:11:28.301Z,22.53
2018-06-10T09:11:53.801Z,22.62
2018-06-10T09:12:19.328Z,22.57
2018-06-10T09:12:44.813Z,22.66
2018-06-10T09:13:10.376Z,22.69
2018-06-10T09:13:35.875Z,22.75
2018-06-10T09:14:01.356Z,22.73
2018-06-10T09:14:26.845Z,22.83
2018-06-10T09:14:52.340Z,22.83
2018-06-10T09:15:17.878Z,22.78
2018-06-10T09:15:43.367Z,22.8
2018-06-10T09:16:08.810Z,22.91
2018-06-10T09:16:34.276Z,22.84
2018-06-10T09:16:59.817Z,22.87
2018-06-10T09:17:25.353Z,22.9
2018-06-10T09:17:50.863Z,22.84
2018-06-10T09:18:16.439Z,22.91
2018-06-10T09:18:41.913Z,22.9
2018-06-10T09:19:07.389Z,22.87
2018-06-10T09:19:32.902Z,22.84
2018-06-10T09:19:58.422Z,22.84
2018-06-10T09:20:23.877Z,22.87
2018-06-10T09:20:49.394Z,22.88
2018-06-10T09:21:14.895Z,22.94
2018-06-10T09:21:40.409Z,22.96
2018-06-10T09:22:05.901Z,22.99
2018-06-10T09:22:31.378Z,22.96
2018-06-10T09:22:56.875Z,23.02
2018-06-10T09:23:22.384Z,23.05
2018-06-10T09:23:47.906Z,23.02
2018-06-10T09:24:13.380Z,23.03
2018-06-10T09:24:38.893Z,23.17
2018-06-10T09:25:04.403Z,23.08
2018-06-10T09:25:29.928Z,23.2
2018-06-10T09:25:55.432Z,23.28
2018-06-10T09:26:59.069Z,23.24
2018-06-10T09:27:24.568Z,23.39
2018-06-10T09:27:50.082Z,23.48
2018-06-10T09:28:15.634Z,23.58
2018-06-10T09:28:41.188Z,23.66
2018-06-10T09:29:06.753Z,23.62
2018-06-10T09:29:32.404Z,23.71
2018-06-10T09:29:57.849Z,23.81
2018-06-10T09:30:23.421Z,23.88
2018-06-10T09:30:48.975Z,24.01
2018-06-10T09:31:14.688Z,24.03
2018-06-10T09:31:40.252Z,24.14
2018-06-10T09:32:05.988Z,24.24
2018-06-10T09:32:31.614Z,24.28
2018-06-10T09:32:57.228Z,24.3
2018-06-10T09:33:22.904Z,24.3
2018-06-10T09:33:48.631Z,24.29
2018-06-10T09:34:14.292Z,24.28
2018-06-10T09:34:39.892Z,24.39
2018-06-10T09:35:05.453Z,24.4
2018-06-10T09:35:31.021Z,24.39
2018-06-10T09:35:56.486Z,24.32
2018-06-10T09:36:22.012Z,24.28
2018-06-10T09:36:47.595Z,24.29
2018-06-10T09:37:13.591Z,24.26
2018-06-10T09:37:39.433Z,24.17
2018-06-10T09:38:04.950Z,24.18
2018-06-10T09:38:30.538Z,24.17
2018-06-10T09:38:56.261Z,24.03
2018-06-10T09:39:21.781Z,24.08
2018-06-10T09:39:47.416Z,23.99
2018-06-10T09:40:13.076Z,23.96
2018-06-10T09:40:38.597Z,24.01
2018-06-10T09:41:04.090Z,23.88
2018-06-10T09:41:29.631Z,23.93
2018-06-10T09:41:55.158Z,23.88
2018-06-10T09:42:20.740Z,23.88
2018-06-10T09:42:46.443Z,23.84
2018-06-10T09:43:11.976Z,23.92
2018-06-10T09:43:37.528Z,23.96
2018-06-10T09:44:03.214Z,24.03
2018-06-10T09:44:28.725Z,24.03
2018-06-10T09:44:54.380Z,24.08
2018-06-10T09:45:19.979Z,24.13
2018-06-10T09:45:45.619Z,24.23
2018-06-10T09:46:11.235Z,24.21
2018-06-10T09:46:36.862Z,24.28
2018-06-10T09:47:02.417Z,24.29
2018-06-10T09:47:28.275Z,24.26
2018-06-10T09:47:53.979Z,24.42
2018-06-10T09:48:19.761Z,24.36
2018-06-10T09:48:45.541Z,24.36